GBYD/BJL METAR and TAF weather

Enter ICAO airport designator
Station Type Date Time Source
GBYD METAR 2019/12/11 17:00 UTC NOAA

GBYD 111700Z 00000KT CAVOK 29/17 Q1009


Station Type Date Time Source
GBYD Decoded METAR 2019/12/11 17:00 UTC NOAA

Banjul / Yundum, Gambia, The (GBYD) 13-21N 016-48W 36M
Dec 11, 2019 - 12:00 PM EST / 2019.12.11 1700 UTC
Wind: Calm:0
Visibility: greater than 7 mile(s):0
Temperature: 84 F (29 C)
Dew Point: 62 F (17 C)
Relative Humidity: 48%
Pressure (altimeter): 29.80 in. Hg (1009 hPa)
ob: GBYD 111700Z 00000KT CAVOK 29/17 Q1009
cycle: 17

Station Type Date Time Source
GBYD TAF 2019/12/11 18:30 UTC NOAA

TAF TAF GBYD 111728Z 1118/1224 12010KT CAVOK

Example: see airport list